In Rescue
 
Open Full Screen Window  High Contrast Mode
July 22, 2019 11:42 PM CDT
Weather Information
Wind Direction
  ---
Wind Speed
  00 kt (0 mph)
Wind Gust
  00 kt (0 mph)
Altimeter
30.29 in
Visibility
10 SM
Temperature
15° C
59° F
Dewpoint
12° C
54° F
Humidity
82%
1hr Rain Fall
00.00 in.
24hr Rain Fall
00.00 in.
Sky Condition
Clear
VFR

METAR KLYV 230442Z AUTO 00000KT 10SM CLR 15/12 A3029 RMK AO2

FAA Disclaimer: The data displayed is for advisory purposes only and is not to be used for flight planning or operations.